Terminal Aerodrome Forecast
Issued by NWS

Home | Current Version | Previous Version | Text Only | Print | Product List | Glossary On
Versions: 1 2 3 4 5 6 7 8 9 10 11 12 13 14 15 16 17 18
780
FTUS43 KUNR 302320
TAFGCC
TAF
KGCC 302320Z 3100/3124 11011KT P6SM VCTS SCT100CB
     FM310100 15009KT P6SM SCT250
     FM311600 22007KT P6SM SKC
     FM311800 34011KT P6SM SCT250=

USA.gov is the U.S. government's official web portal to all federal, state and local government web resources and services.